Time;durP1;ratioP1;P1;durP2;ratioP2;P2;SDS_P1;SDS_P2;PMS_P1;PMS_P2;Temp;Humidity;BMP_temperature;BMP_pressure;BME280_temperature;BME280_humidity;BME280_pressure;Samples;Min_cycle;Max_cycle;Signal;HPM_P1;HPM_P2
2023/08/27 00:00:27;;;;;;;;;1.00;1.00;;;;;24.92;40.53;100592.94;4958665;28;45198;-39
2023/08/27 00:02:52;;;;;;;;;0.25;0.25;;;;;24.93;40.20;100590.19;4958479;28;45398;-38
2023/08/27 00:05:17;;;;;;;;;1.00;1.00;;;;;24.94;40.35;100591.00;4958611;28;45419;-41
2023/08/27 00:07:43;;;;;;;;;1.75;1.00;;;;;24.92;40.50;100583.19;4958143;28;45950;-38
2023/08/27 00:10:09;;;;;;;;;1.50;0.75;;;;;24.93;40.24;100586.69;4958185;28;45748;-40
2023/08/27 00:12:34;;;;;;;;;1.00;1.00;;;;;24.93;39.93;100581.38;4957607;28;45271;-41
2023/08/27 00:14:59;;;;;;;;;0.00;0.00;;;;;24.92;40.60;100577.91;4957516;28;45519;-40
2023/08/27 00:17:25;;;;;;;;;1.00;0.25;;;;;24.92;40.02;100577.91;4956902;28;47864;-40
2023/08/27 00:19:50;;;;;;;;;1.00;1.00;;;;;24.92;40.71;100577.03;4957869;28;45306;-40
2023/08/27 00:22:15;;;;;;;;;0.50;0.50;;;;;24.91;40.22;100578.84;4958222;28;45243;-39
2023/08/27 00:24:40;;;;;;;;;0.00;0.00;;;;;24.92;40.76;100583.19;4957442;28;59642;-40
2023/08/27 00:27:06;;;;;;;;;0.75;0.75;;;;;24.92;40.72;100587.63;4957479;28;61584;-40
2023/08/27 00:29:32;;;;;;;;;1.00;0.25;;;;;24.91;40.33;100581.50;4958313;28;45236;-41
2023/08/27 00:31:58;;;;;;;;;0.25;0.25;;;;;24.90;40.74;100582.47;4958327;28;45385;-40
2023/08/27 00:34:33;;;;;;;;;1.00;1.00;;;;;24.92;40.84;100582.34;4958296;28;45500;-45
2023/08/27 00:37:00;;;;;;;;;4.00;1.00;;;;;24.92;40.63;100577.03;4958119;28;45689;-46
2023/08/27 00:39:26;;;;;;;;;0.75;0.75;;;;;24.92;40.39;100574.38;4958111;28;45410;-44
2023/08/27 00:41:52;;;;;;;;;0.00;0.00;;;;;24.90;40.83;100569.22;4958221;28;45420;-41
2023/08/27 00:44:17;;;;;;;;;0.75;0.00;;;;;24.91;40.73;100570.06;4956944;28;45555;-39
2023/08/27 00:46:43;;;;;;;;;0.50;0.50;;;;;24.91;40.78;100578.03;4957664;28;46135;-39
2023/08/27 00:49:08;;;;;;;;;0.00;0.00;;;;;24.90;41.16;100573.69;4957713;28;45298;-41
2023/08/27 00:51:35;;;;;;;;;1.00;1.00;;;;;24.91;40.63;100575.38;4957992;28;45421;-42
2023/08/27 00:54:00;;;;;;;;;0.50;0.50;;;;;24.89;40.38;100580.78;4957206;28;45235;-42
2023/08/27 00:56:26;;;;;;;;;0.75;0.75;;;;;24.89;40.53;100579.94;4957436;28;45331;-41
2023/08/27 00:58:51;;;;;;;;;0.50;0.00;;;;;24.87;40.99;100574.75;4957547;28;45263;-39
2023/08/27 01:01:19;;;;;;;;;0.00;0.00;;;;;24.90;40.74;100589.59;4957828;28;45345;-45
2023/08/27 01:03:44;;;;;;;;;2.00;1.00;;;;;24.88;40.45;100587.03;4957624;28;45368;-46
2023/08/27 01:06:10;;;;;;;;;1.00;1.00;;;;;24.89;40.84;100588.72;4957381;28;46295;-45
2023/08/27 01:08:43;;;;;;;;;2.00;0.25;;;;;24.89;40.68;100580.78;4957306;28;45336;-42
2023/08/27 01:11:29;;;;;;;;;0.25;0.25;;;;;24.87;41.06;100574.75;4957584;28;45309;-45
2023/08/27 01:14:01;;;;;;;;;1.00;1.00;;;;;24.87;40.82;100577.41;4972615;28;46070;-46
2023/08/27 01:16:29;;;;;;;;;1.00;1.00;;;;;24.88;41.17;100578.25;4957179;28;47088;-46
2023/08/27 01:18:56;;;;;;;;;0.25;0.25;;;;;24.87;40.81;100582.69;4957336;28;45763;-50
2023/08/27 01:21:23;;;;;;;;;2.00;0.00;;;;;24.88;40.49;100584.38;4957559;28;45215;-45
2023/08/27 01:23:48;;;;;;;;;1.00;1.00;;;;;24.87;40.63;100580.03;4957563;28;45564;-41
2023/08/27 01:26:37;;;;;;;;;0.00;0.00;;;;;24.88;40.79;100579.09;4957039;28;46259;-41
2023/08/27 01:29:19;;;;;;;;;1.00;1.00;;;;;24.87;40.49;100574.75;4954566;28;45690;-40
2023/08/27 01:31:55;;;;;;;;;0.00;0.00;;;;;24.84;41.17;100567.06;4960938;28;45346;-41
2023/08/27 01:34:22;;;;;;;;;1.00;1.00;;;;;24.84;40.48;100564.41;4959658;28;45416;-41
2023/08/27 01:36:48;;;;;;;;;0.00;0.00;;;;;24.85;40.61;100572.22;4960501;28;46006;-41
2023/08/27 01:39:14;;;;;;;;;1.00;1.00;;;;;24.84;40.58;100565.22;4960467;28;45759;-38
2023/08/27 01:41:39;;;;;;;;;0.00;0.00;;;;;24.83;40.92;100562.72;4960699;28;45432;-40
2023/08/27 01:44:05;;;;;;;;;1.50;0.25;;;;;24.82;40.58;100561.03;4961141;28;45354;-46
2023/08/27 01:46:30;;;;;;;;;2.00;0.00;;;;;24.82;40.57;100569.81;4960436;28;46570;-45
2023/08/27 01:48:55;;;;;;;;;0.00;0.00;;;;;24.82;40.45;100574.28;4960446;28;45402;-44
2023/08/27 01:51:20;;;;;;;;;1.00;0.00;;;;;24.82;40.82;100567.16;4960225;28;49545;-43
2023/08/27 01:53:46;;;;;;;;;0.00;0.00;;;;;24.82;41.14;100561.03;4960217;28;45709;-41
2023/08/27 01:56:11;;;;;;;;;0.00;0.00;;;;;24.81;40.46;100559.34;4959663;28;61560;-43
2023/08/27 01:58:36;;;;;;;;;1.00;0.00;;;;;24.81;40.93;100561.97;4960551;28;45345;-47
2023/08/27 02:01:02;;;;;;;;;0.25;0.25;;;;;24.80;40.44;100562.94;4960474;28;45251;-48
2023/08/27 02:03:27;;;;;;;;;0.00;0.00;;;;;24.79;40.60;100563.91;4960416;28;45243;-46
2023/08/27 02:05:52;;;;;;;;;0.00;0.00;;;;;24.78;40.70;100565.72;4959313;28;69041;-41
2023/08/27 02:08:17;;;;;;;;;1.50;0.00;;;;;24.79;41.01;100563.91;4960314;28;45326;-42
2023/08/27 02:10:43;;;;;;;;;1.00;1.00;;;;;24.79;40.92;100574.50;4960254;28;45431;-41
2023/08/27 02:13:08;;;;;;;;;0.00;0.00;;;;;24.78;40.59;100567.50;4960217;28;51552;-43
2023/08/27 02:15:33;;;;;;;;;0.50;0.50;;;;;24.79;40.73;100566.56;4960155;28;45362;-43
2023/08/27 02:17:59;;;;;;;;;0.00;0.00;;;;;24.79;40.52;100566.56;4959638;28;52971;-42
2023/08/27 02:20:24;;;;;;;;;0.00;0.00;;;;;24.78;40.96;100570.16;4960107;28;45464;-39
2023/08/27 02:22:49;;;;;;;;;0.00;0.00;;;;;24.79;40.98;100574.50;4960221;28;45294;-42
2023/08/27 02:25:15;;;;;;;;;1.50;0.00;;;;;24.78;40.91;100575.47;4959778;28;46171;-40
2023/08/27 02:27:40;;;;;;;;;0.00;0.00;;;;;24.77;40.47;100576.44;4959606;28;52401;-40
2023/08/27 02:30:06;;;;;;;;;1.00;0.00;;;;;24.78;41.17;100580.75;4960290;28;45243;-40
2023/08/27 02:32:31;;;;;;;;;0.00;0.00;;;;;24.77;40.82;100582.59;4960119;28;45603;-48
2023/08/27 02:34:56;;;;;;;;;0.00;0.00;;;;;24.77;40.89;100569.34;4959583;28;46422;-48
2023/08/27 02:37:22;;;;;;;;;0.00;0.00;;;;;24.78;40.97;100570.16;4959609;28;45328;-40
2023/08/27 02:39:47;;;;;;;;;0.00;0.00;;;;;24.77;40.57;100563.19;4959819;28;45311;-39
2023/08/27 02:42:13;;;;;;;;;0.25;0.00;;;;;24.76;41.10;100558.84;4958858;28;45533;-39
2023/08/27 02:44:38;;;;;;;;;0.00;0.00;;;;;24.76;41.04;100553.53;4959679;28;45379;-41
2023/08/27 02:47:03;;;;;;;;;1.00;1.00;;;;;24.77;41.18;100557.88;4959708;28;45347;-38
2023/08/27 02:49:29;;;;;;;;;0.00;0.00;;;;;24.76;40.75;100567.66;4959636;28;45290;-40
2023/08/27 02:51:54;;;;;;;;;0.00;0.00;;;;;24.76;40.99;100567.66;4959427;28;45434;-39
2023/08/27 02:54:19;;;;;;;;;0.00;0.00;;;;;24.75;40.99;100567.78;4959372;28;45446;-39
2023/08/27 02:56:44;;;;;;;;;0.00;0.00;;;;;24.76;40.48;100566.78;4958832;28;58643;-39
2023/08/27 02:59:10;;;;;;;;;0.00;0.00;;;;;24.74;41.13;100568.75;4959046;28;62420;-40
2023/08/27 03:01:35;;;;;;;;;0.00;0.00;;;;;24.75;40.67;100581.84;4959688;28;45249;-39
2023/08/27 03:04:00;;;;;;;;;0.00;0.00;;;;;24.75;40.65;100576.56;4958545;28;56922;-41
2023/08/27 03:06:26;;;;;;;;;0.00;0.00;;;;;24.75;40.61;100575.72;4958918;28;54856;-45
2023/08/27 03:08:51;;;;;;;;;0.50;0.50;;;;;24.75;41.11;100570.44;4958636;28;60203;-45
2023/08/27 03:11:16;;;;;;;;;0.75;0.00;;;;;24.75;40.53;100573.06;4974500;28;45624;-42
2023/08/27 03:13:42;;;;;;;;;0.00;0.00;;;;;24.75;40.63;100570.44;4959271;28;45333;-44
2023/08/27 03:16:07;;;;;;;;;0.00;0.00;;;;;24.70;40.42;100563.66;4974376;28;45282;-47
2023/08/27 03:18:33;;;;;;;;;0.00;0.00;;;;;24.73;41.05;100567.88;4959233;28;45190;-48
2023/08/27 03:20:58;;;;;;;;;0.00;0.00;;;;;24.70;41.09;100563.66;4959441;28;45433;-47
2023/08/27 03:23:24;;;;;;;;;0.00;0.00;;;;;24.72;40.63;100570.66;4958995;28;46927;-43
2023/08/27 03:25:50;;;;;;;;;0.00;0.00;;;;;24.73;40.73;100572.34;4959034;28;45525;-45
2023/08/27 03:28:15;;;;;;;;;1.00;1.00;;;;;24.73;40.48;100582.94;4959183;28;45274;-46
2023/08/27 03:30:40;;;;;;;;;0.00;0.00;;;;;24.73;40.48;100582.94;4959260;28;45552;-45
2023/08/27 03:33:06;;;;;;;;;0.50;0.00;;;;;24.73;41.11;100591.72;4958754;28;45520;-46
2023/08/27 03:35:31;;;;;;;;;0.25;0.25;;;;;24.72;40.67;100591.84;4958763;28;45239;-50
2023/08/27 03:37:57;;;;;;;;;2.00;0.00;;;;;24.69;40.32;100588.47;4958948;28;45330;-45
2023/08/27 03:40:22;;;;;;;;;1.00;0.00;;;;;24.70;40.61;100594.59;4959052;28;45461;-41
2023/08/27 03:42:47;;;;;;;;;2.25;1.00;;;;;24.70;40.37;100592.81;4958624;28;46286;-41
2023/08/27 03:45:13;;;;;;;;;0.00;0.00;;;;;24.71;41.13;100593.66;4959009;28;45436;-48
2023/08/27 03:47:38;;;;;;;;;0.00;0.00;;;;;24.70;40.48;100595.47;4958671;28;45366;-42
2023/08/27 03:50:04;;;;;;;;;2.00;0.00;;;;;24.70;40.87;100597.25;4958595;28;45393;-45
2023/08/27 03:52:30;;;;;;;;;0.00;0.00;;;;;24.69;40.54;100593.78;4958165;28;47326;-49
2023/08/27 03:54:55;;;;;;;;;0.50;0.00;;;;;24.69;40.87;100593.78;4958432;28;45269;-48
2023/08/27 03:57:21;;;;;;;;;0.00;0.00;;;;;24.67;40.46;100597.47;4958615;28;45374;-43
2023/08/27 03:59:46;;;;;;;;;0.00;0.00;;;;;24.67;40.36;100600.97;4957525;28;45382;-45
2023/08/27 04:02:12;;;;;;;;;0.00;0.00;;;;;24.67;40.96;100597.47;4958518;28;45492;-47
2023/08/27 04:04:37;;;;;;;;;3.25;0.00;;;;;24.67;41.01;100595.66;4958378;28;45384;-40
2023/08/27 04:07:02;;;;;;;;;1.00;0.00;;;;;24.67;40.96;100600.97;4958096;28;53553;-39
2023/08/27 04:09:28;;;;;;;;;0.00;0.00;;;;;24.65;40.37;100600.22;4958582;28;45538;-40
2023/08/27 04:11:53;;;;;;;;;0.75;0.00;;;;;24.66;41.01;100609.88;4958162;28;45370;-40
2023/08/27 04:14:19;;;;;;;;;0.00;0.00;;;;;24.65;40.75;100604.69;4958133;28;45280;-40
2023/08/27 04:16:44;;;;;;;;;0.00;0.00;;;;;24.65;40.72;100607.34;4958403;28;45421;-41
2023/08/27 04:19:09;;;;;;;;;0.75;0.00;;;;;24.65;40.58;100604.69;4958612;28;45500;-39
2023/08/27 04:21:35;;;;;;;;;0.25;0.00;;;;;24.64;40.96;100598.53;4958109;28;45416;-39
2023/08/27 04:24:00;;;;;;;;;0.00;0.00;;;;;24.64;40.68;100606.50;4958104;28;45413;-41
2023/08/27 04:26:25;;;;;;;;;0.00;0.00;;;;;24.64;40.71;100611.78;4957764;28;53786;-42
2023/08/27 04:28:51;;;;;;;;;0.50;0.00;;;;;24.63;40.78;100612.78;4958234;28;45362;-41
2023/08/27 04:31:16;;;;;;;;;0.00;0.00;;;;;24.62;40.41;100616.38;4958073;28;45332;-38
2023/08/27 04:33:43;;;;;;;;;1.00;1.00;;;;;24.60;40.90;100610.34;4973164;28;45298;-43
2023/08/27 04:36:08;;;;;;;;;0.00;0.00;;;;;24.62;40.27;100613.75;4958115;28;45515;-42
2023/08/27 04:38:33;;;;;;;;;0.00;0.00;;;;;24.62;40.68;100618.19;4958196;28;45503;-48
2023/08/27 04:40:59;;;;;;;;;0.00;0.00;;;;;24.61;40.27;100614.69;4957322;28;57936;-49
2023/08/27 04:43:24;;;;;;;;;0.00;0.00;;;;;24.61;40.28;100612.03;4957490;28;55526;-46
2023/08/27 04:45:49;;;;;;;;;0.00;0.00;;;;;24.59;40.95;100619.25;4957519;28;52698;-46
2023/08/27 04:48:14;;;;;;;;;0.00;0.00;;;;;24.61;40.17;100620.00;4958100;28;45594;-46
2023/08/27 04:50:43;;;;;;;;;0.00;0.00;;;;;24.60;40.42;100620.94;4957749;28;45583;-48
2023/08/27 04:53:09;;;;;;;;;0.00;0.00;;;;;24.59;40.58;100624.56;4957814;28;45330;-48
2023/08/27 04:55:34;;;;;;;;;0.50;0.50;;;;;24.60;40.41;100628.91;4957120;28;59053;-47
2023/08/27 04:58:00;;;;;;;;;0.00;0.00;;;;;24.58;40.72;100622.88;4957975;28;45531;-45
2023/08/27 05:00:25;;;;;;;;;0.50;0.50;;;;;24.59;40.24;100629.88;4957582;28;45290;-44
2023/08/27 05:02:50;;;;;;;;;0.00;0.00;;;;;24.58;40.45;100630.81;4957437;28;45424;-45
2023/08/27 05:05:16;;;;;;;;;1.00;0.00;;;;;24.58;40.82;100630.81;4956398;28;62726;-48
2023/08/27 05:07:42;;;;;;;;;0.00;0.00;;;;;24.58;40.80;100633.47;4957831;28;45189;-45
2023/08/27 05:10:08;;;;;;;;;0.00;0.00;;;;;24.59;40.54;100634.28;4957502;28;45900;-45
2023/08/27 05:12:33;;;;;;;;;1.75;0.25;;;;;24.58;40.88;100628.16;4957433;28;45815;-40
2023/08/27 05:14:58;;;;;;;;;0.00;0.00;;;;;24.58;40.47;100638.78;4957228;28;51769;-42
2023/08/27 05:17:24;;;;;;;;;0.50;0.25;;;;;24.58;40.20;100632.63;4956927;28;52219;-40
2023/08/27 05:19:49;;;;;;;;;0.00;0.00;;;;;24.56;40.94;100635.38;4956824;28;58959;-41
2023/08/27 05:22:15;;;;;;;;;0.75;0.75;;;;;24.57;40.63;100636.25;4957725;28;45409;-41
2023/08/27 05:24:40;;;;;;;;;1.00;1.00;;;;;24.57;40.40;100636.25;4957465;28;45321;-40
2023/08/27 05:27:05;;;;;;;;;0.00;0.00;;;;;24.56;40.78;100643.34;4957559;28;45586;-43
2023/08/27 05:29:31;;;;;;;;;0.00;0.00;;;;;24.55;40.30;100644.28;4957189;28;45275;-44
2023/08/27 05:31:56;;;;;;;;;0.00;0.00;;;;;24.56;40.27;100645.97;4957060;28;45705;-46
2023/08/27 05:34:23;;;;;;;;;0.00;0.00;;;;;24.55;40.63;100641.66;4972338;28;45567;-47
2023/08/27 05:36:48;;;;;;;;;0.25;0.25;;;;;24.55;40.70;100650.44;4957840;28;45596;-46
2023/08/27 05:39:14;;;;;;;;;2.75;0.25;;;;;24.55;40.59;100650.44;4957169;28;45778;-47
2023/08/27 05:41:39;;;;;;;;;0.25;0.25;;;;;24.55;40.71;100644.28;4956966;28;45408;-48
2023/08/27 05:44:05;;;;;;;;;1.00;1.00;;;;;24.54;40.82;100648.75;4957257;28;45236;-45
2023/08/27 05:46:31;;;;;;;;;2.00;0.00;;;;;24.54;40.20;100648.75;4957374;28;45352;-46
2023/08/27 05:48:56;;;;;;;;;1.25;0.00;;;;;24.56;40.83;100653.94;4956933;28;45543;-51
2023/08/27 05:51:21;;;;;;;;;0.00;0.00;;;;;24.56;40.88;100656.59;4955913;28;45331;-43
2023/08/27 05:53:46;;;;;;;;;1.00;0.00;;;;;24.55;40.43;100654.88;4957380;28;45274;-47
2023/08/27 05:56:12;;;;;;;;;0.00;0.00;;;;;24.55;40.59;100655.75;4956985;28;45215;-47
2023/08/27 05:58:37;;;;;;;;;0.00;0.00;;;;;24.55;40.30;100660.19;4956600;28;50819;-48
2023/08/27 06:01:02;;;;;;;;;1.00;0.00;;;;;24.56;40.57;100661.88;4956573;28;47090;-45
2023/08/27 06:03:28;;;;;;;;;0.00;0.00;;;;;24.55;40.42;100665.50;4956800;28;45572;-47
2023/08/27 06:05:53;;;;;;;;;0.75;0.00;;;;;24.52;40.60;100655.97;4957069;28;45575;-48
2023/08/27 06:08:19;;;;;;;;;1.00;1.00;;;;;24.54;40.76;100664.66;4956848;28;48780;-38
2023/08/27 06:10:44;;;;;;;;;0.00;0.00;;;;;24.54;40.27;100664.66;4956799;28;45377;-41
2023/08/27 06:13:10;;;;;;;;;3.50;0.00;;;;;24.54;40.66;100659.34;4956911;28;45325;-41
2023/08/27 06:15:37;;;;;;;;;0.25;0.00;;;;;24.54;40.20;100662.00;4958063;28;45543;-43
2023/08/27 06:18:04;;;;;;;;;0.00;0.00;;;;;24.53;40.70;100667.41;4959781;28;46389;-45
2023/08/27 06:20:30;;;;;;;;;1.00;0.00;;;;;24.55;40.20;100666.34;4960055;28;45244;-40
2023/08/27 06:22:55;;;;;;;;;0.00;0.00;;;;;24.56;40.71;100669.81;4958873;28;45236;-42
2023/08/27 06:25:22;;;;;;;;;1.00;1.00;;;;;24.55;40.24;100673.44;4960503;28;45440;-42
2023/08/27 06:27:48;;;;;;;;;0.00;0.00;;;;;24.55;40.63;100670.78;4959894;28;45926;-44
2023/08/27 06:30:13;;;;;;;;;1.00;1.00;;;;;24.54;40.85;100671.75;4974853;28;45543;-44
2023/08/27 06:32:38;;;;;;;;;0.00;0.00;;;;;24.55;40.18;100679.59;4960058;28;45338;-48
2023/08/27 06:35:04;;;;;;;;;0.00;0.00;;;;;24.56;40.90;100677.78;4959712;28;45547;-43
2023/08/27 06:37:29;;;;;;;;;0.50;0.00;;;;;24.57;40.21;100676.00;4959557;28;46154;-44
2023/08/27 06:39:54;;;;;;;;;0.50;0.50;;;;;24.55;40.88;100684.91;4959665;28;45446;-41
2023/08/27 06:42:20;;;;;;;;;0.25;0.00;;;;;24.57;40.43;100682.13;4959990;28;45357;-40
2023/08/27 06:44:45;;;;;;;;;1.00;0.00;;;;;24.55;40.76;100678.72;4959238;28;53849;-46
2023/08/27 06:47:11;;;;;;;;;1.25;0.00;;;;;24.56;40.23;100680.44;4959553;28;46194;-40
2023/08/27 06:49:36;;;;;;;;;0.75;0.75;;;;;24.56;40.65;100685.72;4959447;28;45400;-45
2023/08/27 06:52:02;;;;;;;;;0.00;0.00;;;;;24.55;40.31;100681.38;4959770;28;45333;-46
2023/08/27 06:54:27;;;;;;;;;0.00;0.00;;;;;24.55;40.83;100686.69;4959713;28;45497;-47
2023/08/27 06:56:52;;;;;;;;;0.00;0.00;;;;;24.54;40.85;100680.56;4959620;28;45927;-44
2023/08/27 06:59:18;;;;;;;;;1.00;0.25;;;;;24.56;40.37;100688.38;4959266;28;45333;-45
2023/08/27 07:01:43;;;;;;;;;0.00;0.00;;;;;24.57;40.86;100694.53;4959345;28;45401;-45
2023/08/27 07:04:08;;;;;;;;;0.00;0.00;;;;;24.57;40.89;100690.06;4959469;28;45546;-47
2023/08/27 07:06:34;;;;;;;;;0.00;0.00;;;;;24.58;40.76;100696.22;4959161;28;50339;-49
2023/08/27 07:09:00;;;;;;;;;0.25;0.00;;;;;24.57;40.26;100697.19;4959264;28;45285;-43
2023/08/27 07:11:25;;;;;;;;;0.75;0.75;;;;;24.57;40.17;100700.66;4959658;28;45334;-41
2023/08/27 07:13:51;;;;;;;;;0.00;0.00;;;;;24.57;40.17;100700.66;4959715;28;45218;-45
2023/08/27 07:16:16;;;;;;;;;1.50;0.75;;;;;24.58;40.68;100702.34;4958933;28;45998;-46
2023/08/27 07:18:41;;;;;;;;;0.75;0.00;;;;;24.59;40.12;100703.19;4957933;28;45329;-40
2023/08/27 07:21:07;;;;;;;;;0.50;0.50;;;;;24.59;40.74;100711.13;4959312;28;45219;-45
2023/08/27 07:23:32;;;;;;;;;3.00;0.50;;;;;24.60;40.78;100713.69;4959315;28;45310;-46
2023/08/27 07:25:58;;;;;;;;;1.00;0.00;;;;;24.60;40.73;100712.84;4958950;28;46222;-43
2023/08/27 07:28:23;;;;;;;;;0.00;0.00;;;;;24.59;40.70;100712.00;4958547;28;45472;-41
2023/08/27 07:30:50;;;;;;;;;1.00;0.00;;;;;24.60;40.27;100711.03;4959068;28;45334;-41
2023/08/27 07:33:15;;;;;;;;;2.00;0.25;;;;;24.61;40.14;100712.75;4959284;28;45560;-41
2023/08/27 07:35:41;;;;;;;;;0.00;0.00;;;;;24.60;40.66;100705.75;4957519;28;48004;-41
2023/08/27 07:38:06;;;;;;;;;0.00;0.00;;;;;24.62;40.34;100708.28;4958755;28;45302;-41
2023/08/27 07:40:37;;;;;;;;;0.00;0.00;;;;;24.62;40.48;100719.72;4957724;28;45327;-41
2023/08/27 07:43:04;;;;;;;;;0.25;0.00;;;;;24.63;40.66;100707.31;4959015;28;45540;-50
2023/08/27 07:45:29;;;;;;;;;0.00;0.00;;;;;24.59;40.13;100703.19;4958678;28;46080;-40
2023/08/27 07:47:54;;;;;;;;;0.25;0.25;;;;;24.62;40.75;100714.44;4958890;28;46641;-42
2023/08/27 07:50:20;;;;;;;;;0.00;0.00;;;;;24.63;40.29;100705.53;4958793;28;45350;-41
2023/08/27 07:52:45;;;;;;;;;2.75;0.00;;;;;24.64;40.13;100711.66;4958291;28;51416;-44
2023/08/27 07:55:10;;;;;;;;;0.00;0.00;;;;;24.63;40.54;100708.19;4958478;28;46207;-42
2023/08/27 07:57:36;;;;;;;;;2.00;0.25;;;;;24.64;40.70;100703.72;4958441;28;45263;-44
2023/08/27 08:00:01;;;;;;;;;0.00;0.00;;;;;24.63;40.26;100702.88;4958605;28;45270;-41
2023/08/27 08:02:27;;;;;;;;;0.00;0.00;;;;;24.63;40.30;100700.22;4958908;28;45560;-47
2023/08/27 08:04:52;;;;;;;;;0.00;0.00;;;;;24.65;40.63;100711.53;4957891;28;61946;-41
2023/08/27 08:07:17;;;;;;;;;1.00;1.00;;;;;24.66;40.32;100715.88;4958368;28;45354;-42
2023/08/27 08:09:42;;;;;;;;;1.00;1.00;;;;;24.67;40.20;100712.25;4958494;28;45284;-43
2023/08/27 08:12:08;;;;;;;;;2.00;1.00;;;;;24.66;40.79;100699.97;4957938;28;50113;-42
2023/08/27 08:14:33;;;;;;;;;3.00;1.00;;;;;24.69;40.65;100709.56;4958150;28;45194;-42
2023/08/27 08:16:59;;;;;;;;;0.00;0.00;;;;;24.67;40.22;100701.66;4958143;28;53690;-43
2023/08/27 08:19:24;;;;;;;;;0.00;0.00;;;;;24.68;40.13;100697.22;4958804;28;45642;-42
2023/08/27 08:21:49;;;;;;;;;0.00;0.00;;;;;24.69;40.56;100702.44;4958658;28;45278;-45
2023/08/27 08:24:15;;;;;;;;;1.00;0.00;;;;;24.69;40.78;100697.13;4956457;28;55617;-46
2023/08/27 08:26:40;;;;;;;;;0.25;0.25;;;;;24.70;40.73;100697.97;4957519;28;59909;-48
2023/08/27 08:29:06;;;;;;;;;0.75;0.75;;;;;24.70;40.39;100693.53;4957674;28;45369;-46
2023/08/27 08:31:31;;;;;;;;;0.50;0.50;;;;;24.70;40.67;100690.88;4957821;28;49246;-45
2023/08/27 08:33:56;;;;;;;;;0.25;0.25;;;;;24.72;40.66;100679.31;4958220;28;45250;-45
